sensor_id;sensor_type;location;lat;lon;timestamp;P1;durP1;ratioP1;P2;durP2;ratioP2
23123;SDS011;11731;48.592;8.858;2023-05-23T00:01:03;13.40;;;10.20;;
23123;SDS011;11731;48.592;8.858;2023-05-23T00:03:32;11.37;;;9.40;;
23123;SDS011;11731;48.592;8.858;2023-05-23T00:05:59;10.57;;;9.47;;
23123;SDS011;11731;48.592;8.858;2023-05-23T00:08:28;12.20;;;10.73;;
23123;SDS011;11731;48.592;8.858;2023-05-23T00:10:56;12.50;;;10.63;;
23123;SDS011;11731;48.592;8.858;2023-05-23T00:13:26;13.27;;;9.67;;
23123;SDS011;11731;48.592;8.858;2023-05-23T00:16:09;12.40;;;10.43;;
23123;SDS011;11731;48.592;8.858;2023-05-23T00:18:40;14.53;;;11.40;;
23123;SDS011;11731;48.592;8.858;2023-05-23T00:21:09;13.70;;;10.90;;
23123;SDS011;11731;48.592;8.858;2023-05-23T00:23:40;12.17;;;10.77;;
23123;SDS011;11731;48.592;8.858;2023-05-23T00:26:09;14.37;;;11.07;;
23123;SDS011;11731;48.592;8.858;2023-05-23T00:28:36;15.37;;;11.53;;
23123;SDS011;11731;48.592;8.858;2023-05-23T00:31:03;12.63;;;10.90;;
23123;SDS011;11731;48.592;8.858;2023-05-23T00:33:30;14.70;;;12.03;;
23123;SDS011;11731;48.592;8.858;2023-05-23T00:36:01;15.10;;;12.37;;
23123;SDS011;11731;48.592;8.858;2023-05-23T00:38:35;18.13;;;14.10;;
23123;SDS011;11731;48.592;8.858;2023-05-23T00:41:02;17.93;;;14.07;;
23123;SDS011;11731;48.592;8.858;2023-05-23T00:43:38;15.93;;;13.07;;
23123;SDS011;11731;48.592;8.858;2023-05-23T00:46:05;16.40;;;11.63;;
23123;SDS011;11731;48.592;8.858;2023-05-23T00:48:33;13.03;;;11.17;;
23123;SDS011;11731;48.592;8.858;2023-05-23T00:51:02;15.87;;;12.73;;
23123;SDS011;11731;48.592;8.858;2023-05-23T00:53:29;17.10;;;14.87;;
23123;SDS011;11731;48.592;8.858;2023-05-23T00:56:02;16.73;;;14.20;;
23123;SDS011;11731;48.592;8.858;2023-05-23T00:58:42;17.97;;;14.27;;
23123;SDS011;11731;48.592;8.858;2023-05-23T01:01:09;18.97;;;14.67;;
23123;SDS011;11731;48.592;8.858;2023-05-23T01:03:36;23.17;;;14.90;;
23123;SDS011;11731;48.592;8.858;2023-05-23T01:06:03;16.63;;;14.00;;
23123;SDS011;11731;48.592;8.858;2023-05-23T01:08:30;16.37;;;13.60;;
23123;SDS011;11731;48.592;8.858;2023-05-23T01:10:57;19.03;;;14.17;;
23123;SDS011;11731;48.592;8.858;2023-05-23T01:13:35;16.43;;;13.70;;
23123;SDS011;11731;48.592;8.858;2023-05-23T01:16:09;15.80;;;12.80;;
23123;SDS011;11731;48.592;8.858;2023-05-23T01:18:40;13.60;;;11.70;;
23123;SDS011;11731;48.592;8.858;2023-05-23T01:21:18;15.30;;;11.23;;
23123;SDS011;11731;48.592;8.858;2023-05-23T01:23:59;14.40;;;12.00;;
23123;SDS011;11731;48.592;8.858;2023-05-23T01:26:52;13.70;;;11.27;;
23123;SDS011;11731;48.592;8.858;2023-05-23T01:29:31;15.27;;;10.87;;
23123;SDS011;11731;48.592;8.858;2023-05-23T01:32:00;13.93;;;10.87;;
23123;SDS011;11731;48.592;8.858;2023-05-23T01:34:30;16.60;;;11.23;;
23123;SDS011;11731;48.592;8.858;2023-05-23T01:37:00;13.37;;;11.10;;
23123;SDS011;11731;48.592;8.858;2023-05-23T01:39:27;14.27;;;12.03;;
23123;SDS011;11731;48.592;8.858;2023-05-23T01:41:54;13.77;;;11.73;;
23123;SDS011;11731;48.592;8.858;2023-05-23T01:44:20;15.60;;;12.27;;
23123;SDS011;11731;48.592;8.858;2023-05-23T01:46:49;15.50;;;12.40;;
23123;SDS011;11731;48.592;8.858;2023-05-23T01:49:16;14.10;;;10.67;;
23123;SDS011;11731;48.592;8.858;2023-05-23T01:51:45;12.10;;;10.80;;
23123;SDS011;11731;48.592;8.858;2023-05-23T01:54:12;15.80;;;12.03;;
23123;SDS011;11731;48.592;8.858;2023-05-23T01:56:43;14.17;;;11.67;;
23123;SDS011;11731;48.592;8.858;2023-05-23T01:59:12;15.57;;;11.40;;
23123;SDS011;11731;48.592;8.858;2023-05-23T02:01:39;15.53;;;11.40;;
23123;SDS011;11731;48.592;8.858;2023-05-23T02:04:07;15.73;;;11.67;;
23123;SDS011;11731;48.592;8.858;2023-05-23T02:06:34;14.07;;;11.37;;
23123;SDS011;11731;48.592;8.858;2023-05-23T02:09:01;15.90;;;11.37;;
23123;SDS011;11731;48.592;8.858;2023-05-23T02:11:29;14.00;;;11.70;;
23123;SDS011;11731;48.592;8.858;2023-05-23T02:13:56;16.67;;;11.97;;
23123;SDS011;11731;48.592;8.858;2023-05-23T02:16:23;15.30;;;11.60;;
23123;SDS011;11731;48.592;8.858;2023-05-23T02:18:53;12.73;;;11.30;;
23123;SDS011;11731;48.592;8.858;2023-05-23T02:21:22;13.10;;;11.23;;
23123;SDS011;11731;48.592;8.858;2023-05-23T02:23:53;13.93;;;10.83;;
23123;SDS011;11731;48.592;8.858;2023-05-23T02:26:27;14.17;;;11.30;;
23123;SDS011;11731;48.592;8.858;2023-05-23T02:28:53;14.83;;;11.70;;
23123;SDS011;11731;48.592;8.858;2023-05-23T02:31:20;18.60;;;12.53;;
23123;SDS011;11731;48.592;8.858;2023-05-23T02:33:47;14.17;;;11.77;;
23123;SDS011;11731;48.592;8.858;2023-05-23T02:36:14;17.93;;;12.63;;
23123;SDS011;11731;48.592;8.858;2023-05-23T02:38:42;16.47;;;12.80;;
23123;SDS011;11731;48.592;8.858;2023-05-23T02:41:09;20.47;;;15.40;;
23123;SDS011;11731;48.592;8.858;2023-05-23T02:43:36;18.23;;;14.47;;
23123;SDS011;11731;48.592;8.858;2023-05-23T02:46:03;22.07;;;14.93;;
23123;SDS011;11731;48.592;8.858;2023-05-23T02:48:30;23.10;;;15.17;;
23123;SDS011;11731;48.592;8.858;2023-05-23T02:50:57;16.10;;;12.60;;
23123;SDS011;11731;48.592;8.858;2023-05-23T02:53:24;15.90;;;12.87;;
23123;SDS011;11731;48.592;8.858;2023-05-23T02:55:54;18.00;;;14.30;;
23123;SDS011;11731;48.592;8.858;2023-05-23T02:58:21;15.17;;;13.53;;
23123;SDS011;11731;48.592;8.858;2023-05-23T03:00:49;20.50;;;15.87;;
23123;SDS011;11731;48.592;8.858;2023-05-23T03:03:16;20.33;;;15.27;;
23123;SDS011;11731;48.592;8.858;2023-05-23T03:05:43;19.77;;;15.43;;
23123;SDS011;11731;48.592;8.858;2023-05-23T03:08:10;18.87;;;14.33;;
23123;SDS011;11731;48.592;8.858;2023-05-23T03:10:37;17.30;;;14.13;;
23123;SDS011;11731;48.592;8.858;2023-05-23T03:13:07;21.53;;;15.53;;
23123;SDS011;11731;48.592;8.858;2023-05-23T03:15:34;20.20;;;15.70;;
23123;SDS011;11731;48.592;8.858;2023-05-23T03:18:01;21.90;;;16.27;;
23123;SDS011;11731;48.592;8.858;2023-05-23T03:20:28;24.03;;;17.37;;
23123;SDS011;11731;48.592;8.858;2023-05-23T03:22:58;22.60;;;16.63;;
23123;SDS011;11731;48.592;8.858;2023-05-23T03:25:25;20.80;;;15.90;;
23123;SDS011;11731;48.592;8.858;2023-05-23T03:27:52;15.90;;;12.77;;
23123;SDS011;11731;48.592;8.858;2023-05-23T03:30:27;15.23;;;12.37;;
23123;SDS011;11731;48.592;8.858;2023-05-23T03:32:54;13.43;;;12.03;;
23123;SDS011;11731;48.592;8.858;2023-05-23T03:35:21;16.67;;;13.03;;
23123;SDS011;11731;48.592;8.858;2023-05-23T03:37:48;14.57;;;12.80;;
23123;SDS011;11731;48.592;8.858;2023-05-23T03:40:19;18.13;;;13.37;;
23123;SDS011;11731;48.592;8.858;2023-05-23T03:42:49;15.47;;;12.93;;
23123;SDS011;11731;48.592;8.858;2023-05-23T03:45:31;17.73;;;14.00;;
23123;SDS011;11731;48.592;8.858;2023-05-23T03:48:00;15.33;;;13.40;;
23123;SDS011;11731;48.592;8.858;2023-05-23T03:50:27;17.50;;;13.27;;
23123;SDS011;11731;48.592;8.858;2023-05-23T03:52:54;26.23;;;15.07;;
23123;SDS011;11731;48.592;8.858;2023-05-23T03:55:21;17.00;;;12.80;;
23123;SDS011;11731;48.592;8.858;2023-05-23T03:57:52;18.90;;;14.33;;
23123;SDS011;11731;48.592;8.858;2023-05-23T04:00:19;21.13;;;13.70;;
23123;SDS011;11731;48.592;8.858;2023-05-23T04:02:48;17.57;;;13.80;;
23123;SDS011;11731;48.592;8.858;2023-05-23T04:05:16;17.83;;;13.57;;
23123;SDS011;11731;48.592;8.858;2023-05-23T04:07:48;16.70;;;13.20;;
23123;SDS011;11731;48.592;8.858;2023-05-23T04:10:17;19.37;;;13.43;;
23123;SDS011;11731;48.592;8.858;2023-05-23T04:12:46;15.97;;;13.33;;
23123;SDS011;11731;48.592;8.858;2023-05-23T04:15:13;16.30;;;12.53;;
23123;SDS011;11731;48.592;8.858;2023-05-23T04:17:45;20.00;;;15.43;;
23123;SDS011;11731;48.592;8.858;2023-05-23T04:20:17;22.90;;;16.30;;
23123;SDS011;11731;48.592;8.858;2023-05-23T04:22:45;20.83;;;16.07;;
23123;SDS011;11731;48.592;8.858;2023-05-23T04:25:11;20.20;;;14.83;;
23123;SDS011;11731;48.592;8.858;2023-05-23T04:27:38;27.63;;;20.77;;
23123;SDS011;11731;48.592;8.858;2023-05-23T04:30:06;55.80;;;31.50;;
23123;SDS011;11731;48.592;8.858;2023-05-23T04:32:34;49.53;;;30.70;;
23123;SDS011;11731;48.592;8.858;2023-05-23T04:35:02;52.50;;;36.07;;
23123;SDS011;11731;48.592;8.858;2023-05-23T04:37:30;56.63;;;36.77;;
23123;SDS011;11731;48.592;8.858;2023-05-23T04:39:58;58.90;;;36.57;;
23123;SDS011;11731;48.592;8.858;2023-05-23T04:42:25;51.67;;;36.13;;
23123;SDS011;11731;48.592;8.858;2023-05-23T04:44:53;56.73;;;37.73;;
23123;SDS011;11731;48.592;8.858;2023-05-23T04:47:22;56.17;;;37.67;;
23123;SDS011;11731;48.592;8.858;2023-05-23T04:49:52;57.37;;;36.73;;
23123;SDS011;11731;48.592;8.858;2023-05-23T04:52:21;62.43;;;39.80;;
23123;SDS011;11731;48.592;8.858;2023-05-23T04:54:49;61.17;;;38.80;;
23123;SDS011;11731;48.592;8.858;2023-05-23T04:57:18;60.87;;;40.07;;
23123;SDS011;11731;48.592;8.858;2023-05-23T04:59:44;62.80;;;39.20;;
23123;SDS011;11731;48.592;8.858;2023-05-23T05:02:11;57.27;;;37.07;;
23123;SDS011;11731;48.592;8.858;2023-05-23T05:04:39;62.53;;;40.63;;
23123;SDS011;11731;48.592;8.858;2023-05-23T05:07:09;69.27;;;41.00;;
23123;SDS011;11731;48.592;8.858;2023-05-23T05:09:36;60.20;;;38.43;;
23123;SDS011;11731;48.592;8.858;2023-05-23T05:12:04;57.63;;;38.90;;
23123;SDS011;11731;48.592;8.858;2023-05-23T05:14:33;58.97;;;41.00;;
23123;SDS011;11731;48.592;8.858;2023-05-23T05:17:00;61.00;;;41.13;;
23123;SDS011;11731;48.592;8.858;2023-05-23T05:19:28;55.13;;;39.67;;
23123;SDS011;11731;48.592;8.858;2023-05-23T05:21:55;57.03;;;41.17;;
23123;SDS011;11731;48.592;8.858;2023-05-23T05:24:24;55.50;;;39.67;;
23123;SDS011;11731;48.592;8.858;2023-05-23T05:26:51;57.07;;;37.73;;
23123;SDS011;11731;48.592;8.858;2023-05-23T05:29:20;62.17;;;43.03;;
23123;SDS011;11731;48.592;8.858;2023-05-23T05:31:47;55.57;;;42.33;;
23123;SDS011;11731;48.592;8.858;2023-05-23T05:34:14;63.00;;;43.73;;
23123;SDS011;11731;48.592;8.858;2023-05-23T05:36:41;55.63;;;41.73;;
23123;SDS011;11731;48.592;8.858;2023-05-23T05:39:11;52.73;;;39.10;;
23123;SDS011;11731;48.592;8.858;2023-05-23T05:41:39;61.73;;;44.13;;
23123;SDS011;11731;48.592;8.858;2023-05-23T05:44:06;59.37;;;41.53;;
23123;SDS011;11731;48.592;8.858;2023-05-23T05:46:35;59.17;;;41.33;;
23123;SDS011;11731;48.592;8.858;2023-05-23T05:49:02;58.97;;;42.17;;
23123;SDS011;11731;48.592;8.858;2023-05-23T05:51:29;59.03;;;42.43;;
23123;SDS011;11731;48.592;8.858;2023-05-23T05:53:56;58.93;;;41.80;;
23123;SDS011;11731;48.592;8.858;2023-05-23T05:56:24;55.43;;;41.87;;
23123;SDS011;11731;48.592;8.858;2023-05-23T05:58:52;60.87;;;43.20;;
23123;SDS011;11731;48.592;8.858;2023-05-23T06:01:19;56.30;;;41.57;;
23123;SDS011;11731;48.592;8.858;2023-05-23T06:03:47;55.63;;;38.60;;
23123;SDS011;11731;48.592;8.858;2023-05-23T06:06:14;59.17;;;40.33;;
23123;SDS011;11731;48.592;8.858;2023-05-23T06:08:41;55.10;;;40.67;;
23123;SDS011;11731;48.592;8.858;2023-05-23T06:11:08;55.53;;;39.97;;
23123;SDS011;11731;48.592;8.858;2023-05-23T06:13:36;54.30;;;39.23;;
23123;SDS011;11731;48.592;8.858;2023-05-23T06:16:03;50.50;;;38.43;;
23123;SDS011;11731;48.592;8.858;2023-05-23T06:18:34;50.27;;;36.50;;
23123;SDS011;11731;48.592;8.858;2023-05-23T06:21:02;51.50;;;37.90;;
23123;SDS011;11731;48.592;8.858;2023-05-23T06:23:29;45.60;;;35.53;;
23123;SDS011;11731;48.592;8.858;2023-05-23T06:25:57;51.17;;;37.50;;
23123;SDS011;11731;48.592;8.858;2023-05-23T06:28:24;49.77;;;36.50;;
23123;SDS011;11731;48.592;8.858;2023-05-23T06:30:51;48.47;;;35.43;;
23123;SDS011;11731;48.592;8.858;2023-05-23T06:33:18;47.43;;;36.50;;
23123;SDS011;11731;48.592;8.858;2023-05-23T06:35:45;53.93;;;36.60;;
23123;SDS011;11731;48.592;8.858;2023-05-23T06:38:13;48.10;;;36.80;;
23123;SDS011;11731;48.592;8.858;2023-05-23T06:40:40;50.50;;;37.87;;
23123;SDS011;11731;48.592;8.858;2023-05-23T06:43:07;49.50;;;37.63;;
23123;SDS011;11731;48.592;8.858;2023-05-23T06:45:34;48.87;;;35.13;;
23123;SDS011;11731;48.592;8.858;2023-05-23T06:48:02;49.50;;;35.83;;
23123;SDS011;11731;48.592;8.858;2023-05-23T06:50:29;49.43;;;35.83;;
23123;SDS011;11731;48.592;8.858;2023-05-23T06:52:56;48.40;;;35.70;;
23123;SDS011;11731;48.592;8.858;2023-05-23T06:55:24;48.83;;;35.50;;
23123;SDS011;11731;48.592;8.858;2023-05-23T06:57:52;49.63;;;36.37;;
23123;SDS011;11731;48.592;8.858;2023-05-23T07:00:19;47.80;;;35.03;;
23123;SDS011;11731;48.592;8.858;2023-05-23T07:02:46;47.10;;;35.53;;
23123;SDS011;11731;48.592;8.858;2023-05-23T07:05:13;47.90;;;36.03;;
23123;SDS011;11731;48.592;8.858;2023-05-23T07:07:41;43.40;;;34.83;;
23123;SDS011;11731;48.592;8.858;2023-05-23T07:10:08;45.80;;;33.10;;
23123;SDS011;11731;48.592;8.858;2023-05-23T07:15:34;41.57;;;33.50;;
23123;SDS011;11731;48.592;8.858;2023-05-23T07:18:01;39.50;;;32.73;;
23123;SDS011;11731;48.592;8.858;2023-05-23T07:20:28;42.60;;;32.60;;
23123;SDS011;11731;48.592;8.858;2023-05-23T07:22:55;44.67;;;32.83;;
23123;SDS011;11731;48.592;8.858;2023-05-23T07:25:27;39.87;;;32.67;;
23123;SDS011;11731;48.592;8.858;2023-05-23T07:27:54;37.00;;;29.37;;
23123;SDS011;11731;48.592;8.858;2023-05-23T07:30:20;37.57;;;29.43;;
23123;SDS011;11731;48.592;8.858;2023-05-23T07:32:49;34.13;;;27.70;;
23123;SDS011;11731;48.592;8.858;2023-05-23T07:35:19;37.07;;;28.47;;
23123;SDS011;11731;48.592;8.858;2023-05-23T07:38:23;39.40;;;28.13;;
23123;SDS011;11731;48.592;8.858;2023-05-23T07:41:04;38.03;;;29.37;;
23123;SDS011;11731;48.592;8.858;2023-05-23T07:43:33;34.23;;;27.40;;
23123;SDS011;11731;48.592;8.858;2023-05-23T07:46:11;37.77;;;28.10;;
23123;SDS011;11731;48.592;8.858;2023-05-23T07:48:49;38.87;;;29.10;;
23123;SDS011;11731;48.592;8.858;2023-05-23T07:51:16;34.00;;;27.13;;
23123;SDS011;11731;48.592;8.858;2023-05-23T07:53:45;35.80;;;28.97;;
23123;SDS011;11731;48.592;8.858;2023-05-23T07:56:12;35.97;;;28.97;;
23123;SDS011;11731;48.592;8.858;2023-05-23T07:58:45;32.90;;;28.47;;
23123;SDS011;11731;48.592;8.858;2023-05-23T08:01:12;32.63;;;26.90;;
23123;SDS011;11731;48.592;8.858;2023-05-23T08:03:38;33.63;;;26.23;;
23123;SDS011;11731;48.592;8.858;2023-05-23T08:06:21;32.27;;;25.63;;
23123;SDS011;11731;48.592;8.858;2023-05-23T08:08:48;30.17;;;25.40;;
23123;SDS011;11731;48.592;8.858;2023-05-23T08:11:15;31.40;;;24.37;;
23123;SDS011;11731;48.592;8.858;2023-05-23T08:13:42;30.63;;;24.40;;
23123;SDS011;11731;48.592;8.858;2023-05-23T08:16:10;31.77;;;24.00;;
23123;SDS011;11731;48.592;8.858;2023-05-23T08:18:37;28.23;;;23.03;;
23123;SDS011;11731;48.592;8.858;2023-05-23T08:21:05;30.07;;;23.77;;
23123;SDS011;11731;48.592;8.858;2023-05-23T08:23:33;28.53;;;23.23;;
23123;SDS011;11731;48.592;8.858;2023-05-23T08:26:00;26.90;;;23.83;;
23123;SDS011;11731;48.592;8.858;2023-05-23T08:28:27;27.93;;;22.97;;
23123;SDS011;11731;48.592;8.858;2023-05-23T08:30:54;24.87;;;22.17;;
23123;SDS011;11731;48.592;8.858;2023-05-23T08:33:22;24.30;;;20.13;;
23123;SDS011;11731;48.592;8.858;2023-05-23T08:35:49;23.10;;;19.03;;
23123;SDS011;11731;48.592;8.858;2023-05-23T08:38:16;25.40;;;18.57;;
23123;SDS011;11731;48.592;8.858;2023-05-23T08:40:48;20.30;;;17.23;;
23123;SDS011;11731;48.592;8.858;2023-05-23T08:43:16;19.33;;;16.27;;
23123;SDS011;11731;48.592;8.858;2023-05-23T08:45:43;16.30;;;14.53;;
23123;SDS011;11731;48.592;8.858;2023-05-23T08:48:11;17.53;;;15.47;;
23123;SDS011;11731;48.592;8.858;2023-05-23T08:50:39;18.50;;;15.77;;
23123;SDS011;11731;48.592;8.858;2023-05-23T08:53:08;17.93;;;14.60;;
23123;SDS011;11731;48.592;8.858;2023-05-23T08:55:36;19.10;;;15.57;;
23123;SDS011;11731;48.592;8.858;2023-05-23T08:58:04;18.57;;;14.43;;
23123;SDS011;11731;48.592;8.858;2023-05-23T09:00:32;23.23;;;16.60;;
23123;SDS011;11731;48.592;8.858;2023-05-23T09:03:02;18.57;;;16.37;;
23123;SDS011;11731;48.592;8.858;2023-05-23T09:05:29;20.63;;;14.27;;
23123;SDS011;11731;48.592;8.858;2023-05-23T09:07:56;20.40;;;13.50;;
23123;SDS011;11731;48.592;8.858;2023-05-23T09:10:27;15.00;;;13.13;;
23123;SDS011;11731;48.592;8.858;2023-05-23T09:12:54;16.37;;;13.47;;
23123;SDS011;11731;48.592;8.858;2023-05-23T09:15:23;14.70;;;13.10;;
23123;SDS011;11731;48.592;8.858;2023-05-23T09:17:51;15.17;;;13.47;;
23123;SDS011;11731;48.592;8.858;2023-05-23T09:20:18;16.17;;;13.50;;
23123;SDS011;11731;48.592;8.858;2023-05-23T09:22:45;17.10;;;13.37;;
23123;SDS011;11731;48.592;8.858;2023-05-23T09:25:13;14.60;;;12.10;;
23123;SDS011;11731;48.592;8.858;2023-05-23T09:27:41;14.93;;;12.67;;
23123;SDS011;11731;48.592;8.858;2023-05-23T09:30:09;17.27;;;13.43;;
23123;SDS011;11731;48.592;8.858;2023-05-23T09:32:38;16.07;;;13.47;;
23123;SDS011;11731;48.592;8.858;2023-05-23T09:35:06;17.40;;;13.10;;
23123;SDS011;11731;48.592;8.858;2023-05-23T09:37:37;15.13;;;13.03;;
23123;SDS011;11731;48.592;8.858;2023-05-23T09:40:05;14.50;;;12.53;;
23123;SDS011;11731;48.592;8.858;2023-05-23T09:42:35;15.37;;;13.10;;
23123;SDS011;11731;48.592;8.858;2023-05-23T09:45:07;13.83;;;12.33;;
23123;SDS011;11731;48.592;8.858;2023-05-23T09:47:34;13.87;;;12.33;;
23123;SDS011;11731;48.592;8.858;2023-05-23T09:50:03;13.73;;;12.00;;
23123;SDS011;11731;48.592;8.858;2023-05-23T09:52:33;15.23;;;12.87;;
23123;SDS011;11731;48.592;8.858;2023-05-23T09:55:02;14.83;;;12.90;;
23123;SDS011;11731;48.592;8.858;2023-05-23T09:57:30;15.87;;;12.37;;
23123;SDS011;11731;48.592;8.858;2023-05-23T10:00:01;13.87;;;11.77;;
23123;SDS011;11731;48.592;8.858;2023-05-23T10:02:44;13.33;;;11.93;;
23123;SDS011;11731;48.592;8.858;2023-05-23T10:05:34;13.80;;;12.40;;
23123;SDS011;11731;48.592;8.858;2023-05-23T10:08:05;14.17;;;12.10;;
23123;SDS011;11731;48.592;8.858;2023-05-23T10:10:43;14.30;;;12.07;;
23123;SDS011;11731;48.592;8.858;2023-05-23T10:13:50;13.27;;;11.87;;
23123;SDS011;11731;48.592;8.858;2023-05-23T10:16:18;12.33;;;11.03;;
23123;SDS011;11731;48.592;8.858;2023-05-23T10:18:50;16.23;;;10.27;;
23123;SDS011;11731;48.592;8.858;2023-05-23T10:21:23;13.43;;;11.37;;
23123;SDS011;11731;48.592;8.858;2023-05-23T10:23:56;12.57;;;10.60;;
23123;SDS011;11731;48.592;8.858;2023-05-23T10:26:25;14.30;;;11.13;;
23123;SDS011;11731;48.592;8.858;2023-05-23T10:28:54;12.43;;;10.50;;
23123;SDS011;11731;48.592;8.858;2023-05-23T10:31:25;12.37;;;9.70;;
23123;SDS011;11731;48.592;8.858;2023-05-23T10:37:10;11.30;;;10.10;;
23123;SDS011;11731;48.592;8.858;2023-05-23T10:39:45;11.07;;;9.97;;
23123;SDS011;11731;48.592;8.858;2023-05-23T10:42:21;13.83;;;10.30;;
23123;SDS011;11731;48.592;8.858;2023-05-23T10:45:15;11.83;;;10.57;;
23123;SDS011;11731;48.592;8.858;2023-05-23T10:47:43;11.07;;;9.70;;
23123;SDS011;11731;48.592;8.858;2023-05-23T10:50:12;11.90;;;9.87;;
23123;SDS011;11731;48.592;8.858;2023-05-23T10:52:44;10.13;;;9.00;;
23123;SDS011;11731;48.592;8.858;2023-05-23T10:55:11;11.70;;;9.47;;
23123;SDS011;11731;48.592;8.858;2023-05-23T10:57:42;10.40;;;9.30;;
23123;SDS011;11731;48.592;8.858;2023-05-23T11:00:15;12.47;;;10.00;;
23123;SDS011;11731;48.592;8.858;2023-05-23T11:02:53;11.07;;;9.97;;
23123;SDS011;11731;48.592;8.858;2023-05-23T11:05:27;13.70;;;8.90;;
23123;SDS011;11731;48.592;8.858;2023-05-23T11:08:06;13.37;;;9.97;;
23123;SDS011;11731;48.592;8.858;2023-05-23T11:10:53;11.23;;;10.10;;
23123;SDS011;11731;48.592;8.858;2023-05-23T11:13:21;11.80;;;10.47;;
23123;SDS011;11731;48.592;8.858;2023-05-23T11:15:48;12.80;;;11.03;;
23123;SDS011;11731;48.592;8.858;2023-05-23T11:18:19;11.07;;;9.50;;
23123;SDS011;11731;48.592;8.858;2023-05-23T11:20:48;11.37;;;9.57;;
23123;SDS011;11731;48.592;8.858;2023-05-23T11:23:39;11.70;;;9.40;;
23123;SDS011;11731;48.592;8.858;2023-05-23T11:28:56;10.63;;;9.53;;
23123;SDS011;11731;48.592;8.858;2023-05-23T11:31:35;9.97;;;8.93;;
23123;SDS011;11731;48.592;8.858;2023-05-23T11:34:11;10.93;;;9.67;;
23123;SDS011;11731;48.592;8.858;2023-05-23T11:36:39;10.13;;;9.13;;
23123;SDS011;11731;48.592;8.858;2023-05-23T11:39:07;9.43;;;8.53;;
23123;SDS011;11731;48.592;8.858;2023-05-23T11:41:34;12.03;;;9.90;;
23123;SDS011;11731;48.592;8.858;2023-05-23T11:44:09;10.27;;;9.17;;
23123;SDS011;11731;48.592;8.858;2023-05-23T11:46:37;9.93;;;9.03;;
23123;SDS011;11731;48.592;8.858;2023-05-23T11:49:44;10.33;;;9.20;;
23123;SDS011;11731;48.592;8.858;2023-05-23T11:55:15;10.27;;;8.57;;
23123;SDS011;11731;48.592;8.858;2023-05-23T11:58:20;10.43;;;9.03;;
23123;SDS011;11731;48.592;8.858;2023-05-23T12:00:48;10.77;;;8.67;;
23123;SDS011;11731;48.592;8.858;2023-05-23T12:03:15;12.03;;;8.97;;
23123;SDS011;11731;48.592;8.858;2023-05-23T12:05:42;11.30;;;8.77;;
23123;SDS011;11731;48.592;8.858;2023-05-23T12:08:25;8.83;;;7.93;;
23123;SDS011;11731;48.592;8.858;2023-05-23T12:10:57;8.80;;;7.93;;
23123;SDS011;11731;48.592;8.858;2023-05-23T12:13:26;8.30;;;7.40;;
23123;SDS011;11731;48.592;8.858;2023-05-23T12:18:48;8.27;;;7.23;;
23123;SDS011;11731;48.592;8.858;2023-05-23T12:21:14;8.37;;;7.07;;
23123;SDS011;11731;48.592;8.858;2023-05-23T12:23:41;8.60;;;7.70;;
23123;SDS011;11731;48.592;8.858;2023-05-23T12:26:11;7.93;;;7.00;;
23123;SDS011;11731;48.592;8.858;2023-05-23T12:28:38;8.90;;;7.23;;
23123;SDS011;11731;48.592;8.858;2023-05-23T12:33:51;7.43;;;5.87;;
23123;SDS011;11731;48.592;8.858;2023-05-23T12:36:21;6.87;;;6.20;;
23123;SDS011;11731;48.592;8.858;2023-05-23T12:38:50;6.57;;;5.97;;
23123;SDS011;11731;48.592;8.858;2023-05-23T12:41:19;7.70;;;5.83;;
23123;SDS011;11731;48.592;8.858;2023-05-23T12:43:49;7.57;;;5.40;;
23123;SDS011;11731;48.592;8.858;2023-05-23T12:46:17;6.07;;;5.37;;
23123;SDS011;11731;48.592;8.858;2023-05-23T12:48:44;4.93;;;4.53;;
23123;SDS011;11731;48.592;8.858;2023-05-23T12:51:11;4.40;;;4.00;;
23123;SDS011;11731;48.592;8.858;2023-05-23T12:53:38;5.03;;;4.53;;
23123;SDS011;11731;48.592;8.858;2023-05-23T12:56:40;4.40;;;4.00;;
23123;SDS011;11731;48.592;8.858;2023-05-23T12:58:57;5.70;;;4.10;;
23123;SDS011;11731;48.592;8.858;2023-05-23T13:01:25;4.80;;;4.30;;
23123;SDS011;11731;48.592;8.858;2023-05-23T13:03:53;4.73;;;4.20;;
23123;SDS011;11731;48.592;8.858;2023-05-23T13:06:19;4.50;;;3.97;;
23123;SDS011;11731;48.592;8.858;2023-05-23T13:08:49;5.63;;;3.80;;
23123;SDS011;11731;48.592;8.858;2023-05-23T13:11:22;5.23;;;4.20;;
23123;SDS011;11731;48.592;8.858;2023-05-23T13:13:55;5.10;;;4.60;;
23123;SDS011;11731;48.592;8.858;2023-05-23T13:16:22;4.17;;;3.77;;
23123;SDS011;11731;48.592;8.858;2023-05-23T13:18:49;3.87;;;3.50;;
23123;SDS011;11731;48.592;8.858;2023-05-23T13:21:15;7.57;;;4.00;;
23123;SDS011;11731;48.592;8.858;2023-05-23T13:26:32;4.23;;;3.27;;
23123;SDS011;11731;48.592;8.858;2023-05-23T13:29:14;4.20;;;3.67;;
23123;SDS011;11731;48.592;8.858;2023-05-23T13:34:32;3.70;;;3.33;;
23123;SDS011;11731;48.592;8.858;2023-05-23T13:37:01;4.00;;;3.50;;
23123;SDS011;11731;48.592;8.858;2023-05-23T13:39:30;4.30;;;3.87;;
23123;SDS011;11731;48.592;8.858;2023-05-23T13:41:57;4.07;;;3.67;;
23123;SDS011;11731;48.592;8.858;2023-05-23T13:44:25;3.80;;;3.50;;
23123;SDS011;11731;48.592;8.858;2023-05-23T13:46:53;6.07;;;3.70;;
23123;SDS011;11731;48.592;8.858;2023-05-23T13:49:20;3.53;;;3.23;;
23123;SDS011;11731;48.592;8.858;2023-05-23T13:51:56;3.37;;;3.07;;
23123;SDS011;11731;48.592;8.858;2023-05-23T13:54:31;3.20;;;2.90;;
23123;SDS011;11731;48.592;8.858;2023-05-23T13:56:58;3.73;;;3.43;;
23123;SDS011;11731;48.592;8.858;2023-05-23T13:59:27;3.93;;;3.50;;
23123;SDS011;11731;48.592;8.858;2023-05-23T14:01:55;3.83;;;3.50;;
23123;SDS011;11731;48.592;8.858;2023-05-23T14:04:29;5.20;;;3.40;;
23123;SDS011;11731;48.592;8.858;2023-05-23T14:06:57;3.67;;;3.10;;
23123;SDS011;11731;48.592;8.858;2023-05-23T14:09:24;3.77;;;3.27;;
23123;SDS011;11731;48.592;8.858;2023-05-23T14:11:51;3.90;;;3.30;;
23123;SDS011;11731;48.592;8.858;2023-05-23T14:14:18;4.77;;;3.90;;
23123;SDS011;11731;48.592;8.858;2023-05-23T14:16:48;6.03;;;3.57;;
23123;SDS011;11731;48.592;8.858;2023-05-23T14:19:16;5.03;;;3.47;;
23123;SDS011;11731;48.592;8.858;2023-05-23T14:21:43;3.63;;;3.07;;
23123;SDS011;11731;48.592;8.858;2023-05-23T14:24:10;3.73;;;3.33;;
23123;SDS011;11731;48.592;8.858;2023-05-23T14:26:37;4.10;;;3.60;;
23123;SDS011;11731;48.592;8.858;2023-05-23T14:29:04;4.60;;;3.20;;
23123;SDS011;11731;48.592;8.858;2023-05-23T14:31:31;4.70;;;3.63;;
23123;SDS011;11731;48.592;8.858;2023-05-23T14:33:59;3.80;;;3.50;;
23123;SDS011;11731;48.592;8.858;2023-05-23T14:36:32;3.80;;;3.40;;
23123;SDS011;11731;48.592;8.858;2023-05-23T14:39:00;5.80;;;3.73;;
23123;SDS011;11731;48.592;8.858;2023-05-23T14:41:29;3.93;;;3.53;;
23123;SDS011;11731;48.592;8.858;2023-05-23T14:43:56;3.40;;;3.10;;
23123;SDS011;11731;48.592;8.858;2023-05-23T14:46:23;3.27;;;2.97;;
23123;SDS011;11731;48.592;8.858;2023-05-23T14:48:50;3.43;;;3.13;;
23123;SDS011;11731;48.592;8.858;2023-05-23T14:51:19;3.43;;;3.13;;
23123;SDS011;11731;48.592;8.858;2023-05-23T14:53:46;4.77;;;3.60;;
23123;SDS011;11731;48.592;8.858;2023-05-23T14:56:13;4.40;;;3.37;;
23123;SDS011;11731;48.592;8.858;2023-05-23T14:58:40;3.70;;;3.40;;
23123;SDS011;11731;48.592;8.858;2023-05-23T15:01:09;3.53;;;2.93;;
23123;SDS011;11731;48.592;8.858;2023-05-23T15:03:37;4.27;;;3.87;;
23123;SDS011;11731;48.592;8.858;2023-05-23T15:06:05;5.77;;;3.60;;